Terminal Aerodrome Forecast
Issued by NWS

Home | Current Version | Previous Version | Text Only | Print | Product List | Glossary On
Versions: 1 2 3 4 5 6 7 8 9 10 11 12 13 14 15 16 17 18
000
FTUS43 KLSX 142339
TAFUIN
TAF
KUIN 142339Z 1500/1524 21007KT P6SM SCT035
     FM150200 VRB04KT P6SM SCT250
     FM150900 VRB04KT 3SM BR SCT020
     FM151500 VRB05KT P6SM SCT040 BKN250=

USA.gov is the U.S. government's official web portal to all federal, state and local government web resources and services.